Time;durP1;ratioP1;P1;durP2;ratioP2;P2;SDS_P1;SDS_P2;PMS_P1;PMS_P2;Temp;Humidity;BMP_temperature;BMP_pressure;BME280_temperature;BME280_humidity;BME280_pressure;Samples;Min_cycle;Max_cycle;Signal;HPM_P1;HPM_P2
2024/01/31 00:02:17;;;;;;;0.80;0.80;;;6.50;99.90;;;;;;5137629;27;20122;-72
2024/01/31 00:04:42;;;;;;;0.90;0.90;;;5.70;99.90;;;;;;5137393;27;20057;-72
2024/01/31 00:07:08;;;;;;;0.90;0.90;;;6.20;99.90;;;;;;5137410;27;20112;-71
2024/01/31 00:09:33;;;;;;;2.65;2.45;;;5.70;99.90;;;;;;5137379;27;20035;-72
2024/01/31 00:11:59;;;;;;;0.80;0.80;;;5.60;99.90;;;;;;5137607;27;20035;-71
2024/01/31 00:14:24;;;;;;;0.88;0.88;;;5.60;99.90;;;;;;5137130;27;20054;-71
2024/01/31 00:16:51;;;;;;;0.90;0.90;;;5.60;99.90;;;;;;5136998;27;20134;-71
2024/01/31 00:19:16;;;;;;;0.90;0.90;;;5.60;99.90;;;;;;5137065;27;20071;-72
2024/01/31 00:21:42;;;;;;;0.90;0.90;;;6.30;99.90;;;;;;5137159;27;20081;-71
2024/01/31 00:24:09;;;;;;;0.80;0.80;;;5.60;99.90;;;;;;5136936;27;20075;-71
2024/01/31 00:26:35;;;;;;;0.80;0.80;;;5.60;99.90;;;;;;5136867;27;20050;-71
2024/01/31 00:29:01;;;;;;;0.80;0.80;;;5.60;99.90;;;;;;5118719;27;20524;-72
2024/01/31 00:31:27;;;;;;;0.90;0.90;;;5.70;99.90;;;;;;5136981;27;20051;-71
2024/01/31 00:33:54;;;;;;;0.90;0.90;;;5.70;99.90;;;;;;5136590;27;20491;-71
2024/01/31 00:36:19;;;;;;;0.80;0.80;;;5.60;99.90;;;;;;5136705;27;20058;-71
2024/01/31 00:38:45;;;;;;;0.90;0.90;;;6.70;99.90;;;;;;5136790;27;20036;-71
2024/01/31 00:41:11;;;;;;;0.90;0.90;;;5.70;99.90;;;;;;5136749;27;20043;-71
2024/01/31 00:43:37;;;;;;;0.80;0.80;;;5.70;99.90;;;;;;5136705;27;20046;-71
2024/01/31 00:46:04;;;;;;;0.80;0.80;;;5.70;99.90;;;;;;5136685;27;20055;-71
2024/01/31 00:48:29;;;;;;;0.90;0.90;;;5.70;99.90;;;;;;5136573;27;20047;-71
2024/01/31 00:50:55;;;;;;;0.80;0.80;;;5.70;99.90;;;;;;5136521;27;20391;-71
2024/01/31 00:53:20;;;;;;;0.90;0.90;;;5.70;99.90;;;;;;5137448;27;20394;-71
2024/01/31 00:55:46;;;;;;;0.90;0.90;;;5.70;99.90;;;;;;5136455;27;20117;-71
2024/01/31 00:58:12;;;;;;;0.90;0.90;;;5.70;99.90;;;;;;5136529;27;20091;-71
2024/01/31 01:00:37;;;;;;;0.80;0.80;;;5.70;99.90;;;;;;5136480;27;20524;-71
2024/01/31 01:03:03;;;;;;;0.80;0.80;;;5.70;99.90;;;;;;5136060;27;20046;-71
2024/01/31 01:05:28;;;;;;;0.80;0.80;;;5.70;99.90;;;;;;5136289;27;20070;-71
2024/01/31 01:07:54;;;;;;;0.90;0.90;;;6.20;99.90;;;;;;5136166;27;20047;-71
2024/01/31 01:10:20;;;;;;;0.90;0.90;;;5.60;99.90;;;;;;5135958;27;20043;-71
2024/01/31 01:12:45;;;;;;;0.88;0.88;;;5.60;99.90;;;;;;5136116;27;20085;-71
2024/01/31 01:15:11;;;;;;;0.90;0.90;;;5.60;99.90;;;;;;5136071;27;20054;-71
2024/01/31 01:17:38;;;;;;;3.08;2.45;;;5.60;99.90;;;;;;5117714;27;20099;-71
2024/01/31 01:20:06;;;;;;;0.90;0.90;;;5.60;99.90;;;;;;5135914;27;20073;-71
2024/01/31 01:22:32;;;;;;;0.90;0.90;;;5.60;99.90;;;;;;5135996;27;20039;-71
2024/01/31 01:24:57;;;;;;;0.80;0.80;;;5.60;99.90;;;;;;5136127;27;20065;-71
2024/01/31 01:27:23;;;;;;;0.90;0.90;;;5.60;99.90;;;;;;5135730;27;20054;-71
2024/01/31 01:29:49;;;;;;;0.90;0.90;;;5.60;99.90;;;;;;5138714;27;20061;-71
2024/01/31 01:32:15;;;;;;;0.90;0.90;;;5.60;99.90;;;;;;5154238;27;20045;-71
2024/01/31 01:34:40;;;;;;;0.90;0.90;;;5.60;99.90;;;;;;5154636;27;20051;-71
2024/01/31 01:37:06;;;;;;;2.55;2.35;;;5.60;99.90;;;;;;5147144;27;20469;-71
2024/01/31 01:39:32;;;;;;;0.80;0.80;;;5.60;99.90;;;;;;5156173;27;20038;-71
2024/01/31 01:41:57;;;;;;;0.85;0.85;;;5.60;99.90;;;;;;5142072;27;20441;-71
2024/01/31 01:44:23;;;;;;;0.90;0.90;;;5.60;99.90;;;;;;5156269;27;20068;-72
2024/01/31 01:46:50;;;;;;;0.90;0.90;;;5.60;99.90;;;;;;5155351;27;20034;-71
2024/01/31 01:49:16;;;;;;;0.80;0.80;;;5.60;99.90;;;;;;5155638;27;20122;-71
2024/01/31 01:51:44;;;;;;;0.80;0.80;;;5.60;99.90;;;;;;5155877;27;20138;-71
2024/01/31 01:54:12;;;;;;;0.80;0.80;;;6.10;99.90;;;;;;5155927;27;20081;-71
2024/01/31 01:56:44;;;;;;;0.80;0.80;;;5.50;99.90;;;;;;5142211;27;20067;-71
2024/01/31 01:59:14;;;;;;;0.80;0.80;;;5.50;99.90;;;;;;5135269;27;20047;-71
2024/01/31 02:01:41;;;;;;;0.80;0.80;;;5.50;99.90;;;;;;5134857;27;20047;-71
2024/01/31 02:04:08;;;;;;;0.80;0.80;;;5.50;99.90;;;;;;5135069;27;20058;-71
2024/01/31 02:06:34;;;;;;;0.88;0.88;;;6.40;99.90;;;;;;5135213;27;20122;-72
2024/01/31 02:09:00;;;;;;;0.90;0.90;;;5.50;99.90;;;;;;5135015;27;20126;-71
2024/01/31 02:11:26;;;;;;;0.90;0.90;;;5.50;99.90;;;;;;5135043;27;20486;-72
2024/01/31 02:13:52;;;;;;;0.80;0.80;;;5.50;99.90;;;;;;5134690;27;20039;-71
2024/01/31 02:16:17;;;;;;;0.80;0.80;;;5.50;99.90;;;;;;5135219;27;20139;-71
2024/01/31 02:18:44;;;;;;;0.88;0.88;;;5.50;99.90;;;;;;5117127;27;20055;-71
2024/01/31 02:21:09;;;;;;;0.90;0.90;;;5.50;99.90;;;;;;5134976;27;20043;-71
2024/01/31 02:23:35;;;;;;;0.80;0.80;;;5.50;99.90;;;;;;5134858;27;20053;-71
2024/01/31 02:26:01;;;;;;;0.80;0.80;;;5.50;99.90;;;;;;5134534;27;20054;-71
2024/01/31 02:28:27;;;;;;;0.90;0.90;;;5.50;99.90;;;;;;5134966;27;20040;-71
2024/01/31 02:30:54;;;;;;;0.90;0.90;;;5.50;99.90;;;;;;5134623;27;20039;-71
2024/01/31 02:33:20;;;;;;;0.90;0.90;;;6.40;99.90;;;;;;5134768;27;20402;-71
2024/01/31 02:35:46;;;;;;;0.80;0.80;;;;;;;;;;5116463;28;20039;-71
2024/01/31 02:38:11;;;;;;;0.80;0.80;;;5.50;99.90;;;;;;5135146;28;20043;-71
2024/01/31 02:40:37;;;;;;;0.80;0.80;;;5.50;99.90;;;;;;5134722;28;20475;-71
2024/01/31 02:43:03;;;;;;;0.80;0.80;;;5.50;99.90;;;;;;5134651;28;20085;-71
2024/01/31 02:45:28;;;;;;;0.80;0.80;;;5.50;99.90;;;;;;5134417;28;20505;-71
2024/01/31 02:47:54;;;;;;;0.82;0.82;;;5.50;99.90;;;;;;5134491;28;20043;-71
2024/01/31 02:50:20;;;;;;;1.00;1.00;;;5.50;99.90;;;;;;5116499;28;20043;-71
2024/01/31 02:52:45;;;;;;;0.80;0.80;;;5.50;99.90;;;;;;5116151;28;20083;-71
2024/01/31 02:55:11;;;;;;;0.80;0.80;;;5.50;99.90;;;;;;5134747;28;20043;-71
2024/01/31 02:57:37;;;;;;;0.90;0.90;;;5.50;99.90;;;;;;5134399;27;20054;-71
2024/01/31 03:00:04;;;;;;;0.80;0.80;;;5.50;99.90;;;;;;5137701;27;20051;-71
2024/01/31 03:02:30;;;;;;;0.90;0.90;;;5.40;99.90;;;;;;5138350;27;20482;-72
2024/01/31 03:04:55;;;;;;;0.80;0.80;;;5.40;99.90;;;;;;5120471;27;20043;-71
2024/01/31 03:07:21;;;;;;;0.90;0.90;;;5.40;99.90;;;;;;5138665;27;20066;-71
2024/01/31 03:09:47;;;;;;;1.00;1.00;;;5.40;99.90;;;;;;5138185;27;20047;-71
2024/01/31 03:12:12;;;;;;;0.88;0.88;;;5.40;99.90;;;;;;5138654;27;20047;-71
2024/01/31 03:14:38;;;;;;;0.80;0.80;;;5.40;99.90;;;;;;5138438;27;20088;-72
2024/01/31 03:17:03;;;;;;;5.93;2.45;;;5.40;99.90;;;;;;5138373;27;20049;-71
2024/01/31 03:19:30;;;;;;;0.90;0.90;;;5.90;99.90;;;;;;5138394;27;20039;-71
2024/01/31 03:21:56;;;;;;;0.80;0.80;;;5.40;99.90;;;;;;5138210;27;20059;-71
2024/01/31 03:24:22;;;;;;;0.88;0.88;;;6.20;99.90;;;;;;5138194;27;20043;-72
2024/01/31 03:26:48;;;;;;;0.90;0.90;;;5.40;99.90;;;;;;5138241;27;20050;-72
2024/01/31 03:29:14;;;;;;;0.90;0.90;;;5.40;99.90;;;;;;5138147;27;20082;-71
2024/01/31 03:31:40;;;;;;;0.90;0.90;;;5.40;99.90;;;;;;5153159;27;20078;-71
2024/01/31 03:34:05;;;;;;;0.80;0.80;;;5.50;99.90;;;;;;5155865;27;20478;-71
2024/01/31 03:36:32;;;;;;;0.90;0.90;;;5.40;99.90;;;;;;5152992;27;20050;-71
2024/01/31 03:38:59;;;;;;;0.90;0.90;;;5.40;99.90;;;;;;5137743;27;20390;-71
2024/01/31 03:41:25;;;;;;;0.90;0.90;;;5.40;99.90;;;;;;5158389;27;20082;-71
2024/01/31 03:43:50;;;;;;;0.90;0.90;;;5.40;99.90;;;;;;5158621;27;20074;-71
2024/01/31 03:46:16;;;;;;;0.85;0.85;;;5.40;99.90;;;;;;5140820;27;20311;-71
2024/01/31 03:48:42;;;;;;;0.90;0.90;;;5.40;99.90;;;;;;5146755;27;20600;-71
2024/01/31 03:51:20;;;;;;;0.90;0.90;;;5.40;99.90;;;;;;5137614;27;20043;-71
2024/01/31 03:53:47;;;;;;;0.80;0.80;;;5.30;99.90;;;;;;5137651;27;20064;-71
2024/01/31 03:56:13;;;;;;;0.90;0.90;;;5.30;99.90;;;;;;5137649;27;20214;-71
2024/01/31 03:58:39;;;;;;;0.90;0.90;;;5.30;99.90;;;;;;5137214;27;20047;-71
2024/01/31 04:01:05;;;;;;;0.90;0.90;;;5.30;99.90;;;;;;5137201;27;20137;-71
2024/01/31 04:03:32;;;;;;;0.90;0.90;;;5.70;99.90;;;;;;5119405;27;20042;-71
2024/01/31 04:05:57;;;;;;;0.90;0.90;;;5.30;99.90;;;;;;5137462;27;20035;-71
2024/01/31 04:08:23;;;;;;;0.90;0.90;;;5.30;99.90;;;;;;5137227;27;20043;-71
2024/01/31 04:10:49;;;;;;;0.80;0.80;;;5.30;99.90;;;;;;5119088;27;20039;-71
2024/01/31 04:13:14;;;;;;;0.90;0.90;;;5.30;99.90;;;;;;5137168;27;20043;-71
2024/01/31 04:15:40;;;;;;;0.90;0.90;;;5.30;99.90;;;;;;5137199;27;20082;-71
2024/01/31 04:18:07;;;;;;;0.88;0.88;;;5.30;99.90;;;;;;5118950;27;20072;-71
2024/01/31 04:20:35;;;;;;;0.90;0.90;;;5.20;99.90;;;;;;5119423;27;20100;-71
2024/01/31 04:23:00;;;;;;;0.80;0.80;;;5.20;99.90;;;;;;5137246;27;20356;-71
2024/01/31 04:25:26;;;;;;;0.80;0.80;;;5.20;99.90;;;;;;5136819;27;20049;-71
2024/01/31 04:27:51;;;;;;;0.90;0.90;;;5.20;99.90;;;;;;5118902;27;20133;-71
2024/01/31 04:30:18;;;;;;;0.80;0.80;;;5.80;99.90;;;;;;5136936;27;20127;-71
2024/01/31 04:32:44;;;;;;;0.88;0.88;;;5.20;99.90;;;;;;5136919;27;20376;-71
2024/01/31 04:35:10;;;;;;;0.80;0.80;;;6.00;99.90;;;;;;5118786;27;20049;-71
2024/01/31 04:37:35;;;;;;;0.80;0.80;;;5.30;99.90;;;;;;5136868;27;20126;-71
2024/01/31 04:40:01;;;;;;;0.98;0.98;;;5.20;99.90;;;;;;5136700;27;20131;-72
2024/01/31 04:42:27;;;;;;;1.00;1.00;;;5.20;99.90;;;;;;5136630;27;20050;-71
2024/01/31 04:44:52;;;;;;;0.80;0.80;;;5.20;99.90;;;;;;5136338;27;20051;-71
2024/01/31 04:47:18;;;;;;;0.90;0.90;;;5.20;99.90;;;;;;5136659;27;20126;-71
2024/01/31 04:49:44;;;;;;;0.80;0.80;;;5.20;99.90;;;;;;5136467;27;20047;-71
2024/01/31 04:52:10;;;;;;;0.90;0.90;;;5.20;99.90;;;;;;5137003;27;20055;-71
2024/01/31 04:54:39;;;;;;;0.90;0.90;;;5.20;99.90;;;;;;5136565;27;20043;-71
2024/01/31 04:57:05;;;;;;;0.90;0.90;;;5.30;99.90;;;;;;5136877;27;20039;-71
2024/01/31 04:59:35;;;;;;;0.90;0.90;;;5.20;99.90;;;;;;5117871;27;20131;-71
2024/01/31 05:02:00;;;;;;;0.90;0.90;;;5.20;99.90;;;;;;5136404;27;20047;-71
2024/01/31 05:04:26;;;;;;;0.90;0.90;;;5.20;99.90;;;;;;5136327;27;20050;-71
2024/01/31 05:06:52;;;;;;;0.90;0.90;;;5.30;99.90;;;;;;5136420;27;20115;-71
2024/01/31 05:09:17;;;;;;;0.90;0.90;;;5.20;99.90;;;;;;5135811;27;20042;-71
2024/01/31 05:11:43;;;;;;;0.90;0.90;;;5.20;99.90;;;;;;5136149;27;20047;-71
2024/01/31 05:14:09;;;;;;;0.90;0.90;;;5.20;99.90;;;;;;5136040;27;20390;-71
2024/01/31 05:16:38;;;;;;;0.88;0.88;;;5.20;99.90;;;;;;5117957;27;20047;-71
2024/01/31 05:19:04;;;;;;;0.90;0.90;;;5.20;99.90;;;;;;5136022;27;20126;-71
2024/01/31 05:21:30;;;;;;;0.98;0.98;;;5.20;99.90;;;;;;5135121;27;20082;-71
2024/01/31 05:23:55;;;;;;;0.88;0.88;;;5.20;99.90;;;;;;5135865;27;20039;-71
2024/01/31 05:26:21;;;;;;;0.90;0.90;;;5.20;99.90;;;;;;5135844;27;20487;-71
2024/01/31 05:28:46;;;;;;;1.20;1.10;;;5.20;99.90;;;;;;5135384;27;20039;-71
2024/01/31 05:31:12;;;;;;;0.95;0.95;;;5.20;99.90;;;;;;5141073;27;20066;-72
2024/01/31 05:33:37;;;;;;;1.45;1.38;;;5.20;99.90;;;;;;5145396;27;20167;-71
2024/01/31 05:36:03;;;;;;;0.90;0.90;;;5.20;99.90;;;;;;5146098;27;20049;-71
2024/01/31 05:38:29;;;;;;;0.80;0.80;;;5.20;99.90;;;;;;5150865;27;20034;-71
2024/01/31 05:40:54;;;;;;;0.90;0.90;;;5.20;99.90;;;;;;5137581;27;20047;-71
2024/01/31 05:43:20;;;;;;;0.90;0.90;;;5.10;99.90;;;;;;5145076;27;20039;-72
2024/01/31 05:45:45;;;;;;;0.82;0.82;;;5.20;99.90;;;;;;5135500;27;20083;-71
2024/01/31 05:48:14;;;;;;;1.05;0.98;;;5.10;99.90;;;;;;5135581;27;20055;-71
2024/01/31 05:50:39;;;;;;;0.90;0.90;;;5.10;99.90;;;;;;5135617;27;20379;-71
2024/01/31 05:53:05;;;;;;;0.90;0.90;;;5.10;99.90;;;;;;5152175;27;20050;-71
2024/01/31 05:55:31;;;;;;;0.90;0.90;;;5.10;99.90;;;;;;5156123;27;20110;-71
2024/01/31 05:57:57;;;;;;;0.90;0.90;;;5.10;99.90;;;;;;5156005;27;20470;-72
2024/01/31 06:00:22;;;;;;;0.90;0.90;;;5.10;99.90;;;;;;5156254;27;20382;-72
2024/01/31 06:02:48;;;;;;;1.65;1.10;;;6.00;99.90;;;;;;5156195;27;20466;-71
2024/01/31 06:05:14;;;;;;;0.90;0.90;;;5.10;99.90;;;;;;5155957;27;20046;-71
2024/01/31 06:07:39;;;;;;;0.80;0.80;;;5.10;99.90;;;;;;5155881;27;20115;-71
2024/01/31 06:10:06;;;;;;;0.90;0.90;;;5.40;99.90;;;;;;5155889;27;20041;-71
2024/01/31 06:12:31;;;;;;;1.33;1.23;;;5.10;99.90;;;;;;5155725;27;20046;-71
2024/01/31 06:14:57;;;;;;;1.08;1.00;;;5.20;99.90;;;;;;5156288;27;20070;-71
2024/01/31 06:17:22;;;;;;;0.90;0.90;;;5.10;99.90;;;;;;5155567;27;20051;-75
2024/01/31 06:19:48;;;;;;;0.90;0.90;;;5.10;99.90;;;;;;5155686;27;20110;-70
2024/01/31 06:22:14;;;;;;;0.90;0.90;;;5.10;99.90;;;;;;5148729;27;20039;-70
2024/01/31 06:24:40;;;;;;;2.00;1.90;;;5.10;99.90;;;;;;5153258;27;20038;-72
2024/01/31 06:27:05;;;;;;;0.90;0.90;;;5.10;99.90;;;;;;5139290;27;20474;-76
2024/01/31 06:29:31;;;;;;;0.90;0.90;;;5.10;99.90;;;;;;5134971;27;20035;-71
2024/01/31 06:32:00;;;;;;;0.90;0.90;;;5.10;99.90;;;;;;5134800;27;20095;-73
2024/01/31 06:34:25;;;;;;;0.90;0.90;;;5.00;99.90;;;;;;5155377;27;20078;-71
2024/01/31 06:36:52;;;;;;;0.90;0.90;;;5.10;99.90;;;;;;5155389;27;20425;-69
2024/01/31 06:39:18;;;;;;;0.90;0.90;;;5.00;99.90;;;;;;5155445;27;20066;-71
2024/01/31 06:41:44;;;;;;;0.90;0.90;;;5.00;99.90;;;;;;5155204;27;20477;-69
2024/01/31 06:44:09;;;;;;;1.00;1.00;;;5.00;99.90;;;;;;5146126;27;20038;-68
2024/01/31 06:46:35;;;;;;;0.85;0.85;;;5.00;99.90;;;;;;5155435;27;20050;-71
2024/01/31 06:49:00;;;;;;;0.82;0.82;;;5.00;99.90;;;;;;5155260;27;20091;-69
2024/01/31 06:51:26;;;;;;;0.90;0.90;;;5.00;99.90;;;;;;5154948;27;20157;-70
2024/01/31 06:53:52;;;;;;;0.90;0.90;;;5.00;99.90;;;;;;5155500;27;20047;-69
2024/01/31 06:56:19;;;;;;;0.80;0.80;;;5.00;99.90;;;;;;5136328;27;20047;-69
2024/01/31 06:58:46;;;;;;;0.90;0.90;;;6.10;99.90;;;;;;5155093;27;20494;-70
2024/01/31 07:01:18;;;;;;;0.90;0.90;;;5.00;99.90;;;;;;5153343;27;20050;-76
2024/01/31 07:03:44;;;;;;;0.82;0.82;;;5.00;99.90;;;;;;5145114;27;20054;-74
2024/01/31 07:06:11;;;;;;;0.90;0.90;;;5.00;99.90;;;;;;5153699;27;20081;-73
2024/01/31 07:08:38;;;;;;;0.90;0.90;;;5.00;99.90;;;;;;5133333;28;20300;-74
2024/01/31 07:11:08;;;;;;;0.90;0.90;;;5.00;99.90;;;;;;5133831;28;20035;-74
2024/01/31 07:13:34;;;;;;;0.90;0.90;;;5.00;99.90;;;;;;5133500;28;20039;-74
2024/01/31 07:16:02;;;;;;;0.90;0.90;;;5.00;99.90;;;;;;5133773;28;20488;-74
2024/01/31 07:18:28;;;;;;;0.90;0.90;;;5.00;99.90;;;;;;5133802;28;20039;-71
2024/01/31 07:20:53;;;;;;;1.23;1.13;;;5.00;99.90;;;;;;5133816;28;20050;-72
2024/01/31 07:23:19;;;;;;;0.90;0.90;;;5.00;99.90;;;;;;5134223;28;20051;-70
2024/01/31 07:25:45;;;;;;;0.90;0.90;;;5.00;99.90;;;;;;5134146;28;20054;-71
2024/01/31 07:28:10;;;;;;;0.88;0.88;;;5.10;99.90;;;;;;5134731;28;20043;-70
2024/01/31 07:30:36;;;;;;;0.90;0.90;;;5.10;99.90;;;;;;5133750;28;20078;-70
2024/01/31 07:33:02;;;;;;;0.85;0.85;;;5.10;99.90;;;;;;5133995;28;20031;-69
2024/01/31 07:35:27;;;;;;;0.90;0.90;;;5.70;99.90;;;;;;5132893;28;20487;-69
2024/01/31 07:37:53;;;;;;;0.90;0.90;;;5.10;99.90;;;;;;5133898;28;20039;-69
2024/01/31 07:40:18;;;;;;;0.90;0.90;;;5.10;99.90;;;;;;5134151;28;20047;-70
2024/01/31 07:42:44;;;;;;;0.82;0.82;;;5.10;99.90;;;;;;5134068;28;20043;-69
2024/01/31 07:45:10;;;;;;;0.90;0.90;;;5.10;99.90;;;;;;5135447;27;20042;-69
2024/01/31 07:47:37;;;;;;;3.20;3.00;;;5.10;99.90;;;;;;5138177;27;20051;-69
2024/01/31 07:50:06;;;;;;;0.90;0.90;;;5.10;99.90;;;;;;5137733;27;20065;-69
2024/01/31 07:52:32;;;;;;;0.85;0.85;;;5.10;99.90;;;;;;5137366;27;20396;-69
2024/01/31 07:54:58;;;;;;;0.90;0.90;;;5.10;99.90;;;;;;5119486;27;20046;-69
2024/01/31 07:57:24;;;;;;;0.90;0.90;;;5.10;99.90;;;;;;5119310;27;20038;-69
2024/01/31 07:59:49;;;;;;;0.95;0.95;;;5.10;99.90;;;;;;5137931;27;20046;-70
2024/01/31 08:02:15;;;;;;;1.10;1.00;;;5.10;99.90;;;;;;5137634;27;20535;-69
2024/01/31 08:04:41;;;;;;;1.05;1.05;;;5.10;99.90;;;;;;5137330;27;20130;-69
2024/01/31 08:07:06;;;;;;;0.90;0.90;;;5.10;99.90;;;;;;5137239;27;20459;-69
2024/01/31 08:09:32;;;;;;;0.80;0.80;;;5.10;99.90;;;;;;5137009;27;20130;-70
2024/01/31 08:11:57;;;;;;;0.90;0.90;;;5.00;99.90;;;;;;5137145;27;20090;-70
2024/01/31 08:14:23;;;;;;;0.90;0.90;;;5.00;99.90;;;;;;5137358;27;20130;-69
2024/01/31 08:16:51;;;;;;;0.90;0.90;;;5.10;99.90;;;;;;5137294;27;20039;-69
2024/01/31 08:19:17;;;;;;;1.17;1.08;;;5.00;99.90;;;;;;5137182;27;20035;-69
2024/01/31 08:21:42;;;;;;;0.90;0.90;;;5.10;99.90;;;;;;5137256;27;20051;-69
2024/01/31 08:24:08;;;;;;;1.05;0.98;;;6.00;99.90;;;;;;5137251;27;20510;-69
2024/01/31 08:26:33;;;;;;;1.75;1.65;;;5.00;99.90;;;;;;5137192;27;20055;-69
2024/01/31 08:28:59;;;;;;;1.10;1.00;;;5.10;99.90;;;;;;5136978;27;20082;-69
2024/01/31 08:31:25;;;;;;;1.10;1.00;;;6.00;99.90;;;;;;5137021;27;20107;-69
2024/01/31 08:33:50;;;;;;;1.83;1.67;;;5.00;99.90;;;;;;5136623;27;20039;-69
2024/01/31 08:36:16;;;;;;;0.90;0.90;;;5.10;99.90;;;;;;5136931;27;20046;-69
2024/01/31 08:38:43;;;;;;;0.90;0.90;;;5.00;99.90;;;;;;5118170;27;20490;-69
2024/01/31 08:41:10;;;;;;;0.80;0.80;;;5.10;99.90;;;;;;5136537;27;20506;-69
2024/01/31 08:43:36;;;;;;;0.80;0.80;;;5.10;99.90;;;;;;5135275;27;20073;-70
2024/01/31 08:46:02;;;;;;;1.10;1.00;;;5.10;99.90;;;;;;5136791;27;20043;-70
2024/01/31 08:48:27;;;;;;;0.90;0.90;;;5.10;99.90;;;;;;5136427;27;20043;-69
2024/01/31 08:50:53;;;;;;;0.90;0.90;;;5.10;99.90;;;;;;5136604;27;20098;-70
2024/01/31 08:53:19;;;;;;;0.90;0.90;;;5.10;99.90;;;;;;5136952;27;20126;-70
2024/01/31 08:55:44;;;;;;;0.90;0.90;;;5.20;99.90;;;;;;5135928;27;20505;-69
2024/01/31 08:58:10;;;;;;;0.85;0.85;;;5.20;99.90;;;;;;5135978;27;20043;-70
2024/01/31 09:00:35;;;;;;;0.90;0.90;;;5.20;99.90;;;;;;5118362;27;20043;-70
2024/01/31 09:03:03;;;;;;;0.80;0.80;;;5.20;99.90;;;;;;5136618;27;20413;-70
2024/01/31 09:05:29;;;;;;;1.00;0.90;;;5.30;99.90;;;;;;5136381;27;20055;-69
2024/01/31 09:07:55;;;;;;;0.90;0.90;;;5.30;99.90;;;;;;5136107;27;20091;-70
2024/01/31 09:10:21;;;;;;;0.80;0.80;;;5.30;99.90;;;;;;5135883;27;20129;-69
2024/01/31 09:12:47;;;;;;;0.80;0.80;;;5.30;99.90;;;;;;5136726;27;20508;-69
2024/01/31 09:15:13;;;;;;;0.80;0.80;;;5.30;99.90;;;;;;5136104;27;20085;-70
2024/01/31 09:17:38;;;;;;;0.90;0.90;;;5.40;99.90;;;;;;5136025;27;20066;-70
2024/01/31 09:20:06;;;;;;;1.00;1.00;;;5.40;99.90;;;;;;5136027;27;20095;-69
2024/01/31 09:22:31;;;;;;;0.90;0.90;;;5.40;99.90;;;;;;5136029;27;20095;-70
2024/01/31 09:24:57;;;;;;;0.80;0.80;;;6.20;99.90;;;;;;5135901;27;20130;-70
2024/01/31 09:27:23;;;;;;;0.90;0.90;;;5.40;99.90;;;;;;5135934;27;20039;-70
2024/01/31 09:29:48;;;;;;;0.80;0.80;;;5.50;99.90;;;;;;5135519;27;20082;-73
2024/01/31 09:32:15;;;;;;;1.00;0.90;;;5.50;99.90;;;;;;5118205;27;20039;-70
2024/01/31 09:34:43;;;;;;;1.45;1.35;;;6.00;99.90;;;;;;5146967;27;20050;-69
2024/01/31 09:37:09;;;;;;;0.90;0.90;;;5.50;99.90;;;;;;5140527;27;20039;-69
2024/01/31 09:39:34;;;;;;;0.90;0.90;;;5.50;99.90;;;;;;5148294;27;20163;-72
2024/01/31 09:42:00;;;;;;;0.90;0.90;;;5.60;99.90;;;;;;5134267;27;20126;-71
2024/01/31 09:44:28;;;;;;;0.90;0.90;;;5.60;99.90;;;;;;5143534;27;20577;-74
2024/01/31 09:46:56;;;;;;;0.90;0.90;;;6.40;99.90;;;;;;5156115;27;20116;-73
2024/01/31 09:49:21;;;;;;;0.90;0.90;;;5.70;99.90;;;;;;5155938;27;20030;-74
2024/01/31 09:51:48;;;;;;;1.20;1.10;;;5.70;99.90;;;;;;5155898;27;20486;-71
2024/01/31 09:54:14;;;;;;;1.00;0.90;;;5.70;99.90;;;;;;5139506;27;20096;-71
2024/01/31 09:56:40;;;;;;;1.20;1.10;;;5.80;99.90;;;;;;5135433;27;20039;-71
2024/01/31 09:59:05;;;;;;;0.95;0.93;;;5.80;99.90;;;;;;5135279;27;20432;-69
2024/01/31 10:01:31;;;;;;;1.00;1.00;;;6.90;99.90;;;;;;5135316;27;20035;-69
2024/01/31 10:03:57;;;;;;;0.90;0.90;;;5.80;99.90;;;;;;5135280;27;20155;-68
2024/01/31 10:06:29;;;;;;;0.90;0.90;;;5.80;99.90;;;;;;5134952;27;20390;-70
2024/01/31 10:08:57;;;;;;;0.90;0.90;;;5.90;99.90;;;;;;5134620;27;20356;-70
2024/01/31 10:11:24;;;;;;;0.90;0.90;;;5.90;99.90;;;;;;5135215;27;20503;-69
2024/01/31 10:13:50;;;;;;;0.90;0.90;;;5.90;99.90;;;;;;5135037;27;20047;-70
2024/01/31 10:16:15;;;;;;;0.90;0.90;;;5.90;99.90;;;;;;5135030;27;20055;-71
2024/01/31 10:18:41;;;;;;;1.10;1.00;;;5.90;99.90;;;;;;5134988;27;20039;-72
2024/01/31 10:21:11;;;;;;;0.90;0.90;;;6.00;99.90;;;;;;5134996;27;20122;-72
2024/01/31 10:23:37;;;;;;;1.05;1.00;;;6.00;99.90;;;;;;5134846;27;20047;-69
2024/01/31 10:26:03;;;;;;;0.90;0.90;;;6.00;99.90;;;;;;5134782;27;20050;-69
2024/01/31 10:28:29;;;;;;;0.90;0.90;;;6.00;99.90;;;;;;5135027;27;20507;-68
2024/01/31 10:30:55;;;;;;;1.10;1.00;;;6.00;99.90;;;;;;5134795;27;20039;-71
2024/01/31 10:33:22;;;;;;;1.10;1.00;;;6.70;99.90;;;;;;5134723;27;20046;-70
2024/01/31 10:35:48;;;;;;;0.90;0.90;;;6.10;99.90;;;;;;5134827;27;20047;-72
2024/01/31 10:38:14;;;;;;;0.90;0.90;;;6.10;99.90;;;;;;5134491;27;20049;-69
2024/01/31 10:40:41;;;;;;;1.10;1.00;;;6.10;99.90;;;;;;5134656;27;20497;-68
2024/01/31 10:43:10;;;;;;;0.90;0.90;;;6.20;99.90;;;;;;5137551;27;20486;-68
2024/01/31 10:45:36;;;;;;;1.38;1.27;;;6.20;99.90;;;;;;5155443;27;20047;-73
2024/01/31 10:48:04;;;;;;;1.10;1.00;;;6.20;99.90;;;;;;5154924;27;20061;-69
2024/01/31 10:50:31;;;;;;;0.90;0.90;;;6.20;99.90;;;;;;5155101;27;20503;-67
2024/01/31 10:52:58;;;;;;;0.90;0.90;;;6.30;99.90;;;;;;5155173;27;20062;-67
2024/01/31 10:55:23;;;;;;;;;;;6.30;99.90;;;;;;5155358;27;20489;-67
2024/01/31 10:57:49;;;;;;;0.90;0.90;;;6.30;99.90;;;;;;5149351;27;19919;-67
2024/01/31 11:00:25;;;;;;;1.10;1.00;;;6.30;99.90;;;;;;5145635;27;20043;-68
2024/01/31 11:02:51;;;;;;;0.90;0.90;;;6.30;99.90;;;;;;5134678;28;20046;-68
2024/01/31 11:05:17;;;;;;;0.90;0.90;;;6.30;99.90;;;;;;5136429;27;20425;-69
2024/01/31 11:07:44;;;;;;;0.90;0.90;;;6.60;99.90;;;;;;5155062;27;20047;-67
2024/01/31 11:10:11;;;;;;;;;;;6.40;99.90;;;;;;5155427;27;20099;-69
2024/01/31 11:12:36;;;;;;;0.85;0.85;;;6.40;99.90;;;;;;5148667;27;20374;-68
2024/01/31 11:15:04;;;;;;;1.08;1.00;;;6.40;99.90;;;;;;5152190;27;20050;-69
2024/01/31 11:17:34;;;;;;;0.90;0.90;;;6.40;99.90;;;;;;5154191;27;20440;-68
2024/01/31 11:20:01;;;;;;;0.90;0.90;;;6.40;99.90;;;;;;5134620;27;20078;-68
2024/01/31 11:22:28;;;;;;;1.50;1.40;;;6.40;99.90;;;;;;5136833;27;20039;-71
2024/01/31 11:24:56;;;;;;;0.90;0.90;;;6.40;99.90;;;;;;5137115;27;20565;-71
2024/01/31 11:27:22;;;;;;;3.20;2.88;;;6.40;99.90;;;;;;5136758;27;20125;-67
2024/01/31 11:29:51;;;;;;;1.77;1.63;;;6.40;99.90;;;;;;5136704;27;20479;-70
2024/01/31 11:32:23;;;;;;;0.90;0.90;;;6.40;99.90;;;;;;5136661;27;20039;-68
2024/01/31 11:34:59;;;;;;;0.90;0.90;;;6.40;99.90;;;;;;5137089;27;20049;-67
2024/01/31 11:37:25;;;;;;;0.90;0.90;;;6.40;99.90;;;;;;5137988;27;20077;-71
2024/01/31 11:39:50;;;;;;;0.98;0.95;;;6.40;99.90;;;;;;5137907;27;20039;-68
2024/01/31 11:42:16;;;;;;;1.20;1.10;;;6.40;99.90;;;;;;5137811;27;20096;-72
2024/01/31 11:44:42;;;;;;;0.90;0.90;;;6.40;99.90;;;;;;5137977;27;20133;-74
2024/01/31 11:47:08;;;;;;;0.97;0.97;;;6.80;99.90;;;;;;5102700;27;20059;-72
2024/01/31 11:49:34;;;;;;;1.05;0.95;;;7.50;99.90;;;;;;5137758;27;20039;-70
2024/01/31 11:51:59;;;;;;;1.13;1.02;;;6.50;99.90;;;;;;5137626;27;20055;-71
2024/01/31 11:54:25;;;;;;;1.10;1.00;;;6.60;99.90;;;;;;5138075;27;20043;-72
2024/01/31 11:56:51;;;;;;;0.95;0.95;;;6.60;99.90;;;;;;5137664;27;20519;-73
2024/01/31 11:59:16;;;;;;;1.63;1.52;;;6.60;99.90;;;;;;5137655;27;20039;-74
2024/01/31 12:01:42;;;;;;;1.08;1.00;;;6.60;99.90;;;;;;5141284;27;20051;-73
2024/01/31 12:04:08;;;;;;;0.90;0.90;;;6.70;99.90;;;;;;5137698;27;20035;-70
2024/01/31 12:06:33;;;;;;;1.00;1.00;;;7.00;99.90;;;;;;5137425;27;20549;-71
2024/01/31 12:08:59;;;;;;;0.98;0.90;;;6.70;99.90;;;;;;5137294;27;20040;-71
2024/01/31 12:11:25;;;;;;;1.25;1.15;;;6.80;99.90;;;;;;5138154;27;20043;-68
2024/01/31 12:13:50;;;;;;;1.10;1.00;;;6.80;99.90;;;;;;5147648;27;20394;-68
2024/01/31 12:16:16;;;;;;;1.02;1.00;;;6.80;99.90;;;;;;5157981;27;20382;-69
2024/01/31 12:18:45;;;;;;;0.90;0.90;;;6.80;99.90;;;;;;5158386;27;20074;-70
2024/01/31 12:21:10;;;;;;;1.20;1.10;;;7.80;99.90;;;;;;5149137;27;20127;-67
2024/01/31 12:23:36;;;;;;;1.05;0.95;;;6.90;99.90;;;;;;5136920;27;20043;-68
2024/01/31 12:26:02;;;;;;;1.10;1.00;;;7.00;99.90;;;;;;5137194;27;20086;-74
2024/01/31 12:28:28;;;;;;;0.90;0.90;;;7.00;99.90;;;;;;5137251;27;20078;-69
2024/01/31 12:30:54;;;;;;;0.90;0.90;;;7.00;99.90;;;;;;5136617;27;20120;-69
2024/01/31 12:33:20;;;;;;;1.15;1.05;;;7.00;99.90;;;;;;5136634;27;20092;-69
2024/01/31 12:35:45;;;;;;;1.27;1.17;;;7.00;99.90;;;;;;5137301;27;20039;-69
2024/01/31 12:38:12;;;;;;;0.90;0.90;;;7.00;99.90;;;;;;5135868;27;20281;-70
2024/01/31 12:40:38;;;;;;;0.90;0.90;;;7.00;99.90;;;;;;5136704;27;20051;-70
2024/01/31 12:43:04;;;;;;;1.20;1.10;;;7.40;99.90;;;;;;5136819;27;20095;-70
2024/01/31 12:45:31;;;;;;;1.63;1.53;;;7.00;99.90;;;;;;5136840;27;20058;-69
2024/01/31 12:47:57;;;;;;;0.90;0.90;;;7.10;99.90;;;;;;5136413;27;20100;-75
2024/01/31 12:50:23;;;;;;;0.80;0.80;;;7.10;99.90;;;;;;5136618;27;20051;-69
2024/01/31 12:52:48;;;;;;;1.05;1.00;;;7.00;99.90;;;;;;5136469;27;20069;-70